sensor_id;sensor_type;location;lat;lon;timestamp;pressure;altitude;pressure_sealevel;temperature;humidity
23616;BME280;11985;49.404;7.734;2023-02-16T00:03:57;98258.94;;;-0.03;100.00
23616;BME280;11985;49.404;7.734;2023-02-16T00:09:00;98249.03;;;0.03;100.00
23616;BME280;11985;49.404;7.734;2023-02-16T00:14:02;98252.25;;;0.06;100.00
23616;BME280;11985;49.404;7.734;2023-02-16T00:19:15;98243.41;;;0.09;100.00
23616;BME280;11985;49.404;7.734;2023-02-16T00:24:18;98245.28;;;0.07;100.00
23616;BME280;11985;49.404;7.734;2023-02-16T00:29:23;98238.47;;;0.06;100.00
23616;BME280;11985;49.404;7.734;2023-02-16T00:34:28;98245.66;;;0.24;100.00
23616;BME280;11985;49.404;7.734;2023-02-16T00:39:32;98244.25;;;0.43;100.00
23616;BME280;11985;49.404;7.734;2023-02-16T00:44:36;98252.59;;;0.69;100.00
23616;BME280;11985;49.404;7.734;2023-02-16T00:49:40;98250.94;;;0.79;100.00
23616;BME280;11985;49.404;7.734;2023-02-16T00:54:43;98248.59;;;0.76;100.00
23616;BME280;11985;49.404;7.734;2023-02-16T00:59:45;98241.28;;;0.70;100.00
23616;BME280;11985;49.404;7.734;2023-02-16T01:04:46;98246.94;;;0.75;100.00
23616;BME280;11985;49.404;7.734;2023-02-16T01:09:49;98254.84;;;0.85;100.00
23616;BME280;11985;49.404;7.734;2023-02-16T01:15:12;98249.97;;;0.91;100.00
23616;BME280;11985;49.404;7.734;2023-02-16T01:20:15;98259.97;;;1.07;100.00
23616;BME280;11985;49.404;7.734;2023-02-16T01:25:18;98253.50;;;1.01;100.00
23616;BME280;11985;49.404;7.734;2023-02-16T01:30:21;98262.25;;;0.89;100.00
23616;BME280;11985;49.404;7.734;2023-02-16T01:35:27;98246.00;;;0.76;100.00
23616;BME280;11985;49.404;7.734;2023-02-16T01:40:40;98243.66;;;0.62;100.00
23616;BME280;11985;49.404;7.734;2023-02-16T01:45:47;98238.22;;;0.65;100.00
23616;BME280;11985;49.404;7.734;2023-02-16T01:50:55;98240.34;;;0.60;100.00
23616;BME280;11985;49.404;7.734;2023-02-16T01:56:03;98235.91;;;0.50;100.00
23616;BME280;11985;49.404;7.734;2023-02-16T02:06:53;98226.91;;;0.55;100.00
23616;BME280;11985;49.404;7.734;2023-02-16T02:12:04;98225.53;;;0.50;100.00
23616;BME280;11985;49.404;7.734;2023-02-16T02:17:11;98223.03;;;0.38;100.00
23616;BME280;11985;49.404;7.734;2023-02-16T02:22:31;98220.78;;;0.22;100.00
23616;BME280;11985;49.404;7.734;2023-02-16T02:28:02;98215.50;;;0.12;100.00
23616;BME280;11985;49.404;7.734;2023-02-16T02:33:26;98222.66;;;-0.03;100.00
23616;BME280;11985;49.404;7.734;2023-02-16T02:38:39;98209.91;;;-0.17;100.00
23616;BME280;11985;49.404;7.734;2023-02-16T02:43:51;98211.31;;;-0.35;100.00
23616;BME280;11985;49.404;7.734;2023-02-16T02:48:56;98206.72;;;-0.43;100.00
23616;BME280;11985;49.404;7.734;2023-02-16T02:54:03;98208.19;;;-0.51;100.00
23616;BME280;11985;49.404;7.734;2023-02-16T02:59:25;98204.41;;;-0.59;100.00
23616;BME280;11985;49.404;7.734;2023-02-16T03:04:49;98203.44;;;-0.69;100.00
23616;BME280;11985;49.404;7.734;2023-02-16T03:09:52;98200.00;;;-0.81;100.00
23616;BME280;11985;49.404;7.734;2023-02-16T03:15:15;98202.41;;;-0.90;100.00
23616;BME280;11985;49.404;7.734;2023-02-16T03:20:18;98203.78;;;-0.97;100.00
23616;BME280;11985;49.404;7.734;2023-02-16T03:25:37;98202.81;;;-1.08;100.00
23616;BME280;11985;49.404;7.734;2023-02-16T03:30:59;98200.66;;;-1.14;100.00
23616;BME280;11985;49.404;7.734;2023-02-16T03:36:02;98196.63;;;-1.18;100.00
23616;BME280;11985;49.404;7.734;2023-02-16T03:41:05;98201.59;;;-1.15;100.00
23616;BME280;11985;49.404;7.734;2023-02-16T03:46:08;98199.00;;;-1.15;100.00
23616;BME280;11985;49.404;7.734;2023-02-16T03:51:09;98200.00;;;-1.04;100.00
23616;BME280;11985;49.404;7.734;2023-02-16T03:56:11;98204.84;;;-1.00;100.00
23616;BME280;11985;49.404;7.734;2023-02-16T04:01:13;98206.59;;;-1.00;100.00
23616;BME280;11985;49.404;7.734;2023-02-16T04:06:15;98213.97;;;-1.07;100.00
23616;BME280;11985;49.404;7.734;2023-02-16T04:11:17;98213.53;;;-1.01;100.00
23616;BME280;11985;49.404;7.734;2023-02-16T04:16:37;98211.75;;;-1.00;100.00
23616;BME280;11985;49.404;7.734;2023-02-16T04:21:39;98208.91;;;-1.09;100.00
23616;BME280;11985;49.404;7.734;2023-02-16T04:26:42;98209.22;;;-1.13;100.00
23616;BME280;11985;49.404;7.734;2023-02-16T04:31:46;98208.41;;;-1.14;100.00
23616;BME280;11985;49.404;7.734;2023-02-16T04:36:47;98203.25;;;-1.14;100.00
23616;BME280;11985;49.404;7.734;2023-02-16T04:41:49;98208.63;;;-1.17;100.00
23616;BME280;11985;49.404;7.734;2023-02-16T04:46:51;98203.69;;;-1.20;100.00
23616;BME280;11985;49.404;7.734;2023-02-16T04:51:53;98202.03;;;-1.21;100.00
23616;BME280;11985;49.404;7.734;2023-02-16T04:56:55;98198.13;;;-1.02;100.00
23616;BME280;11985;49.404;7.734;2023-02-16T05:01:57;98205.09;;;-0.68;100.00
23616;BME280;11985;49.404;7.734;2023-02-16T05:06:59;98207.78;;;-0.34;100.00
23616;BME280;11985;49.404;7.734;2023-02-16T05:12:01;98203.69;;;-0.14;100.00
23616;BME280;11985;49.404;7.734;2023-02-16T05:17:22;98199.13;;;-0.11;100.00
23616;BME280;11985;49.404;7.734;2023-02-16T05:22:25;98198.06;;;-0.08;100.00
23616;BME280;11985;49.404;7.734;2023-02-16T05:27:29;98197.69;;;-0.15;100.00
23616;BME280;11985;49.404;7.734;2023-02-16T05:32:32;98198.66;;;-0.16;100.00
23616;BME280;11985;49.404;7.734;2023-02-16T05:37:33;98211.81;;;-0.19;100.00
23616;BME280;11985;49.404;7.734;2023-02-16T05:42:35;98215.59;;;-0.12;100.00
23616;BME280;11985;49.404;7.734;2023-02-16T05:47:38;98207.34;;;-0.06;100.00
23616;BME280;11985;49.404;7.734;2023-02-16T05:52:39;98220.53;;;-0.09;100.00
23616;BME280;11985;49.404;7.734;2023-02-16T05:57:41;98232.06;;;-0.13;100.00
23616;BME280;11985;49.404;7.734;2023-02-16T06:02:43;98232.06;;;-0.13;100.00
23616;BME280;11985;49.404;7.734;2023-02-16T06:07:45;98234.91;;;-0.05;100.00
23616;BME280;11985;49.404;7.734;2023-02-16T06:12:46;98239.50;;;-0.08;100.00
23616;BME280;11985;49.404;7.734;2023-02-16T06:17:49;98240.78;;;-0.14;100.00
23616;BME280;11985;49.404;7.734;2023-02-16T06:22:51;98244.16;;;-0.24;100.00
23616;BME280;11985;49.404;7.734;2023-02-16T06:27:53;98251.31;;;-0.28;100.00
23616;BME280;11985;49.404;7.734;2023-02-16T06:32:57;98241.56;;;-0.24;100.00
23616;BME280;11985;49.404;7.734;2023-02-16T06:37:59;98248.06;;;-0.19;100.00
23616;BME280;11985;49.404;7.734;2023-02-16T06:43:00;98250.31;;;-0.14;100.00
23616;BME280;11985;49.404;7.734;2023-02-16T06:48:03;98245.03;;;-0.02;100.00
23616;BME280;11985;49.404;7.734;2023-02-16T06:53:05;98241.00;;;-0.06;100.00
23616;BME280;11985;49.404;7.734;2023-02-16T06:58:11;98254.41;;;-0.12;100.00
23616;BME280;11985;49.404;7.734;2023-02-16T07:03:15;98246.44;;;-0.09;100.00
23616;BME280;11985;49.404;7.734;2023-02-16T07:08:16;98247.88;;;-0.05;100.00
23616;BME280;11985;49.404;7.734;2023-02-16T07:13:18;98248.78;;;-0.06;100.00
23616;BME280;11985;49.404;7.734;2023-02-16T07:18:20;98252.81;;;0.10;100.00
23616;BME280;11985;49.404;7.734;2023-02-16T07:23:22;98260.59;;;0.32;100.00
23616;BME280;11985;49.404;7.734;2023-02-16T07:28:24;98265.91;;;0.64;100.00
23616;BME280;11985;49.404;7.734;2023-02-16T07:33:27;98273.53;;;0.99;100.00
23616;BME280;11985;49.404;7.734;2023-02-16T07:38:29;98280.84;;;1.17;100.00
23616;BME280;11985;49.404;7.734;2023-02-16T07:43:31;98294.25;;;1.22;100.00
23616;BME280;11985;49.404;7.734;2023-02-16T07:48:35;98288.97;;;1.44;100.00
23616;BME280;11985;49.404;7.734;2023-02-16T07:53:36;98297.50;;;1.78;100.00
23616;BME280;11985;49.404;7.734;2023-02-16T07:58:38;98294.44;;;2.15;100.00
23616;BME280;11985;49.404;7.734;2023-02-16T08:03:41;98283.81;;;2.39;100.00
23616;BME280;11985;49.404;7.734;2023-02-16T08:08:43;98290.47;;;2.62;100.00
23616;BME280;11985;49.404;7.734;2023-02-16T08:13:45;98290.72;;;2.90;100.00
23616;BME280;11985;49.404;7.734;2023-02-16T08:18:49;98273.38;;;3.20;100.00
23616;BME280;11985;49.404;7.734;2023-02-16T08:23:53;98274.94;;;3.51;100.00
23616;BME280;11985;49.404;7.734;2023-02-16T08:28:56;98285.34;;;3.70;100.00
23616;BME280;11985;49.404;7.734;2023-02-16T08:34:00;98287.56;;;3.85;100.00
23616;BME280;11985;49.404;7.734;2023-02-16T08:39:06;98295.34;;;4.04;100.00
23616;BME280;11985;49.404;7.734;2023-02-16T08:44:09;98289.97;;;4.15;100.00
23616;BME280;11985;49.404;7.734;2023-02-16T08:49:14;98304.53;;;4.28;100.00
23616;BME280;11985;49.404;7.734;2023-02-16T08:54:18;98309.41;;;4.40;99.70
23616;BME280;11985;49.404;7.734;2023-02-16T08:59:20;98302.66;;;4.57;98.58
23616;BME280;11985;49.404;7.734;2023-02-16T09:04:24;98308.75;;;4.75;97.64
23616;BME280;11985;49.404;7.734;2023-02-16T09:09:28;98317.72;;;5.00;95.65
23616;BME280;11985;49.404;7.734;2023-02-16T09:14:29;98317.56;;;5.29;94.05
23616;BME280;11985;49.404;7.734;2023-02-16T09:19:32;98307.75;;;5.59;92.37
23616;BME280;11985;49.404;7.734;2023-02-16T09:24:34;98305.00;;;5.78;90.59
23616;BME280;11985;49.404;7.734;2023-02-16T09:29:36;98302.84;;;5.92;88.71
23616;BME280;11985;49.404;7.734;2023-02-16T09:34:39;98296.78;;;6.09;87.28
23616;BME280;11985;49.404;7.734;2023-02-16T09:39:41;98298.84;;;6.23;86.50
23616;BME280;11985;49.404;7.734;2023-02-16T09:44:48;98299.34;;;6.45;84.67
23616;BME280;11985;49.404;7.734;2023-02-16T09:49:52;98298.25;;;6.55;83.51
23616;BME280;11985;49.404;7.734;2023-02-16T09:54:57;98291.31;;;6.72;81.70
23616;BME280;11985;49.404;7.734;2023-02-16T10:00:04;98294.66;;;6.91;81.44
23616;BME280;11985;49.404;7.734;2023-02-16T10:05:25;98284.59;;;7.12;79.55
23616;BME280;11985;49.404;7.734;2023-02-16T10:10:33;98280.38;;;7.27;78.06
23616;BME280;11985;49.404;7.734;2023-02-16T10:15:42;98278.81;;;7.51;77.21
23616;BME280;11985;49.404;7.734;2023-02-16T10:20:47;98287.34;;;7.77;75.91
23616;BME280;11985;49.404;7.734;2023-02-16T10:25:55;98277.38;;;8.05;74.89
23616;BME280;11985;49.404;7.734;2023-02-16T10:31:02;98283.09;;;8.01;74.31
23616;BME280;11985;49.404;7.734;2023-02-16T10:36:16;98288.19;;;7.94;73.93
23616;BME280;11985;49.404;7.734;2023-02-16T10:41:28;98278.16;;;8.14;74.20
23616;BME280;11985;49.404;7.734;2023-02-16T10:46:35;98271.28;;;8.45;73.48
23616;BME280;11985;49.404;7.734;2023-02-16T10:51:41;98264.69;;;8.58;72.46
23616;BME280;11985;49.404;7.734;2023-02-16T10:56:50;98256.88;;;8.89;72.03
23616;BME280;11985;49.404;7.734;2023-02-16T11:01:55;98257.63;;;8.97;71.47
23616;BME280;11985;49.404;7.734;2023-02-16T11:07:03;98253.69;;;9.02;70.93
23616;BME280;11985;49.404;7.734;2023-02-16T11:12:19;98254.59;;;9.17;70.74
23616;BME280;11985;49.404;7.734;2023-02-16T11:17:24;98242.00;;;9.35;70.50
23616;BME280;11985;49.404;7.734;2023-02-16T11:22:30;98240.06;;;9.29;69.70
23616;BME280;11985;49.404;7.734;2023-02-16T11:27:32;98235.50;;;9.23;69.73
23616;BME280;11985;49.404;7.734;2023-02-16T11:32:33;98235.44;;;9.31;70.26
23616;BME280;11985;49.404;7.734;2023-02-16T11:37:38;98242.03;;;9.27;69.90
23616;BME280;11985;49.404;7.734;2023-02-16T11:42:44;98242.34;;;9.32;70.07
23616;BME280;11985;49.404;7.734;2023-02-16T11:47:51;98240.16;;;9.44;70.23
23616;BME280;11985;49.404;7.734;2023-02-16T11:52:56;98231.38;;;9.51;69.83
23616;BME280;11985;49.404;7.734;2023-02-16T11:58:16;98231.56;;;9.73;69.00
23616;BME280;11985;49.404;7.734;2023-02-16T12:03:32;98236.97;;;9.94;69.43
23616;BME280;11985;49.404;7.734;2023-02-16T12:08:46;98223.19;;;10.07;68.49
23616;BME280;11985;49.404;7.734;2023-02-16T12:14:02;98215.78;;;10.11;68.87
23616;BME280;11985;49.404;7.734;2023-02-16T12:19:16;98210.50;;;10.11;68.44
23616;BME280;11985;49.404;7.734;2023-02-16T12:24:33;98208.38;;;10.29;68.61
23616;BME280;11985;49.404;7.734;2023-02-16T12:29:45;98211.63;;;10.31;68.56
23616;BME280;11985;49.404;7.734;2023-02-16T12:35:04;98209.09;;;10.38;68.71
23616;BME280;11985;49.404;7.734;2023-02-16T12:40:22;98204.84;;;10.66;67.94
23616;BME280;11985;49.404;7.734;2023-02-16T12:45:31;98186.25;;;10.89;67.92
23616;BME280;11985;49.404;7.734;2023-02-16T12:50:40;98185.94;;;10.99;67.02
23616;BME280;11985;49.404;7.734;2023-02-16T12:55:46;98175.50;;;11.27;67.01
23616;BME280;11985;49.404;7.734;2023-02-16T13:00:51;98172.00;;;11.41;65.83
23616;BME280;11985;49.404;7.734;2023-02-16T13:06:06;98177.72;;;11.23;65.52
23616;BME280;11985;49.404;7.734;2023-02-16T13:11:16;98174.19;;;11.16;65.62
23616;BME280;11985;49.404;7.734;2023-02-16T13:16:23;98162.63;;;10.96;65.95
23616;BME280;11985;49.404;7.734;2023-02-16T13:21:56;98152.63;;;10.91;66.29
23616;BME280;11985;49.404;7.734;2023-02-16T13:27:11;98148.50;;;10.67;66.78
23616;BME280;11985;49.404;7.734;2023-02-16T13:32:26;98156.56;;;10.66;67.50
23616;BME280;11985;49.404;7.734;2023-02-16T13:37:49;98152.16;;;10.51;67.95
23616;BME280;11985;49.404;7.734;2023-02-16T13:43:13;98131.72;;;10.53;68.26
23616;BME280;11985;49.404;7.734;2023-02-16T13:48:22;98131.06;;;10.66;68.56
23616;BME280;11985;49.404;7.734;2023-02-16T13:53:25;98122.09;;;10.61;68.55
23616;BME280;11985;49.404;7.734;2023-02-16T13:58:31;98117.91;;;10.51;68.56
23616;BME280;11985;49.404;7.734;2023-02-16T14:03:38;98112.94;;;10.42;69.05
23616;BME280;11985;49.404;7.734;2023-02-16T14:08:40;98106.84;;;10.41;69.49
23616;BME280;11985;49.404;7.734;2023-02-16T14:13:48;98090.03;;;10.42;69.74
23616;BME280;11985;49.404;7.734;2023-02-16T14:18:54;98097.59;;;10.45;69.81
23616;BME280;11985;49.404;7.734;2023-02-16T14:23:58;98104.22;;;10.41;70.20
23616;BME280;11985;49.404;7.734;2023-02-16T14:29:08;98099.69;;;10.35;70.06
23616;BME280;11985;49.404;7.734;2023-02-16T14:34:16;98096.16;;;10.28;69.89
23616;BME280;11985;49.404;7.734;2023-02-16T14:39:19;98112.66;;;10.22;70.32
23616;BME280;11985;49.404;7.734;2023-02-16T14:44:37;98107.56;;;10.20;70.67
23616;BME280;11985;49.404;7.734;2023-02-16T14:50:10;98113.94;;;10.26;70.95
23616;BME280;11985;49.404;7.734;2023-02-16T15:01:14;98111.22;;;10.34;71.18
23616;BME280;11985;49.404;7.734;2023-02-16T15:06:17;98102.59;;;10.40;70.91
23616;BME280;11985;49.404;7.734;2023-02-16T15:11:22;98114.75;;;10.26;70.93
23616;BME280;11985;49.404;7.734;2023-02-16T15:16:27;98108.56;;;10.19;70.95
23616;BME280;11985;49.404;7.734;2023-02-16T15:21:29;98111.31;;;10.11;70.84
23616;BME280;11985;49.404;7.734;2023-02-16T15:26:34;98113.81;;;10.04;71.31
23616;BME280;11985;49.404;7.734;2023-02-16T15:31:38;98122.72;;;9.89;72.30
23616;BME280;11985;49.404;7.734;2023-02-16T15:36:42;98120.69;;;9.76;73.26
23616;BME280;11985;49.404;7.734;2023-02-16T15:41:46;98113.53;;;9.70;74.44
23616;BME280;11985;49.404;7.734;2023-02-16T15:46:51;98103.38;;;9.67;74.06
23616;BME280;11985;49.404;7.734;2023-02-16T15:51:52;98111.88;;;9.69;73.86
23616;BME280;11985;49.404;7.734;2023-02-16T15:56:56;98116.81;;;9.72;73.58
23616;BME280;11985;49.404;7.734;2023-02-16T16:02:03;98108.34;;;9.76;73.61
23616;BME280;11985;49.404;7.734;2023-02-16T16:07:12;98106.63;;;9.69;73.33
23616;BME280;11985;49.404;7.734;2023-02-16T16:12:16;98090.38;;;9.65;73.80
23616;BME280;11985;49.404;7.734;2023-02-16T16:17:24;98089.28;;;9.60;73.77
23616;BME280;11985;49.404;7.734;2023-02-16T16:22:32;98091.00;;;9.52;73.98
23616;BME280;11985;49.404;7.734;2023-02-16T16:27:35;98099.03;;;9.36;75.87
23616;BME280;11985;49.404;7.734;2023-02-16T16:32:38;98098.53;;;9.18;78.91
23616;BME280;11985;49.404;7.734;2023-02-16T16:37:39;98093.09;;;8.96;81.18
23616;BME280;11985;49.404;7.734;2023-02-16T16:43:04;98091.88;;;8.84;82.80
23616;BME280;11985;49.404;7.734;2023-02-16T16:48:15;98089.25;;;8.84;82.55
23616;BME280;11985;49.404;7.734;2023-02-16T16:53:42;98089.25;;;8.84;82.94
23616;BME280;11985;49.404;7.734;2023-02-16T16:58:47;98092.69;;;8.85;83.41
23616;BME280;11985;49.404;7.734;2023-02-16T17:03:50;98103.31;;;8.91;82.68
23616;BME280;11985;49.404;7.734;2023-02-16T17:08:52;98096.06;;;8.93;82.75
23616;BME280;11985;49.404;7.734;2023-02-16T17:13:56;98099.69;;;8.92;82.74
23616;BME280;11985;49.404;7.734;2023-02-16T17:18:59;98101.88;;;8.89;82.84
23616;BME280;11985;49.404;7.734;2023-02-16T17:24:02;98103.69;;;8.88;82.77
23616;BME280;11985;49.404;7.734;2023-02-16T17:29:06;98097.28;;;8.83;82.85
23616;BME280;11985;49.404;7.734;2023-02-16T17:34:09;98096.00;;;8.79;82.88
23616;BME280;11985;49.404;7.734;2023-02-16T17:39:11;98094.53;;;8.76;83.08
23616;BME280;11985;49.404;7.734;2023-02-16T17:44:13;98107.38;;;8.71;83.50
23616;BME280;11985;49.404;7.734;2023-02-16T17:49:15;98107.72;;;8.68;83.62
23616;BME280;11985;49.404;7.734;2023-02-16T17:54:17;98106.09;;;8.67;83.52
23616;BME280;11985;49.404;7.734;2023-02-16T17:59:19;98106.09;;;8.67;83.03
23616;BME280;11985;49.404;7.734;2023-02-16T18:04:22;98105.75;;;8.70;83.17
23616;BME280;11985;49.404;7.734;2023-02-16T18:09:23;98104.44;;;8.66;82.83
23616;BME280;11985;49.404;7.734;2023-02-16T18:14:25;98096.63;;;8.58;82.66
23616;BME280;11985;49.404;7.734;2023-02-16T18:19:28;98092.56;;;8.47;82.99
23616;BME280;11985;49.404;7.734;2023-02-16T18:24:31;98087.38;;;8.39;82.88
23616;BME280;11985;49.404;7.734;2023-02-16T18:29:32;98087.53;;;8.29;83.22
23616;BME280;11985;49.404;7.734;2023-02-16T18:34:35;98088.22;;;8.23;83.45
23616;BME280;11985;49.404;7.734;2023-02-16T18:39:37;98087.59;;;8.13;83.77
23616;BME280;11985;49.404;7.734;2023-02-16T18:44:39;98084.72;;;8.00;84.19
23616;BME280;11985;49.404;7.734;2023-02-16T18:49:45;98096.03;;;7.92;84.53
23616;BME280;11985;49.404;7.734;2023-02-16T18:54:47;98087.19;;;7.93;84.62
23616;BME280;11985;49.404;7.734;2023-02-16T18:59:49;98084.09;;;7.89;84.95
23616;BME280;11985;49.404;7.734;2023-02-16T19:04:52;98091.59;;;8.01;84.74
23616;BME280;11985;49.404;7.734;2023-02-16T19:09:53;98092.22;;;8.11;84.56
23616;BME280;11985;49.404;7.734;2023-02-16T19:14:55;98100.22;;;8.17;83.88
23616;BME280;11985;49.404;7.734;2023-02-16T19:19:58;98098.41;;;8.18;83.86
23616;BME280;11985;49.404;7.734;2023-02-16T19:24:59;98095.97;;;8.16;83.83
23616;BME280;11985;49.404;7.734;2023-02-16T19:30:01;98099.41;;;8.17;83.58
23616;BME280;11985;49.404;7.734;2023-02-16T19:35:04;98109.09;;;8.16;83.94
23616;BME280;11985;49.404;7.734;2023-02-16T19:40:08;98107.91;;;8.19;83.62
23616;BME280;11985;49.404;7.734;2023-02-16T19:45:10;98102.66;;;8.19;83.38
23616;BME280;11985;49.404;7.734;2023-02-16T19:50:13;98104.81;;;8.15;83.50
23616;BME280;11985;49.404;7.734;2023-02-16T19:55:14;98114.81;;;8.20;83.14
23616;BME280;11985;49.404;7.734;2023-02-16T20:00:16;98117.41;;;8.28;82.89
23616;BME280;11985;49.404;7.734;2023-02-16T20:05:19;98111.16;;;8.37;82.10
23616;BME280;11985;49.404;7.734;2023-02-16T20:10:21;98113.78;;;8.37;82.03
23616;BME280;11985;49.404;7.734;2023-02-16T20:15:22;98111.81;;;8.31;82.03
23616;BME280;11985;49.404;7.734;2023-02-16T20:20:26;98113.81;;;8.21;82.23
23616;BME280;11985;49.404;7.734;2023-02-16T20:25:27;98112.22;;;8.12;82.45
23616;BME280;11985;49.404;7.734;2023-02-16T20:30:29;98106.34;;;8.02;82.94
23616;BME280;11985;49.404;7.734;2023-02-16T20:35:32;98101.41;;;7.99;83.43
23616;BME280;11985;49.404;7.734;2023-02-16T20:40:33;98095.50;;;8.05;83.25
23616;BME280;11985;49.404;7.734;2023-02-16T20:45:35;98090.56;;;8.10;82.85
23616;BME280;11985;49.404;7.734;2023-02-16T20:50:41;98089.94;;;8.08;82.72
23616;BME280;11985;49.404;7.734;2023-02-16T20:55:43;98100.47;;;8.00;82.68
23616;BME280;11985;49.404;7.734;2023-02-16T21:00:45;98099.16;;;7.87;82.77
23616;BME280;11985;49.404;7.734;2023-02-16T21:05:47;98104.75;;;7.84;83.45
23616;BME280;11985;49.404;7.734;2023-02-16T21:10:49;98099.19;;;7.71;83.76
23616;BME280;11985;49.404;7.734;2023-02-16T21:15:51;98094.97;;;7.62;84.03
23616;BME280;11985;49.404;7.734;2023-02-16T21:20:54;98097.25;;;7.57;84.66
23616;BME280;11985;49.404;7.734;2023-02-16T21:25:56;98091.34;;;7.63;84.81
23616;BME280;11985;49.404;7.734;2023-02-16T21:31:01;98090.03;;;7.59;84.73
23616;BME280;11985;49.404;7.734;2023-02-16T21:36:06;98091.34;;;7.63;84.97
23616;BME280;11985;49.404;7.734;2023-02-16T21:41:12;98089.84;;;7.77;84.53
23616;BME280;11985;49.404;7.734;2023-02-16T21:46:29;98086.72;;;7.89;83.49
23616;BME280;11985;49.404;7.734;2023-02-16T21:51:35;98074.25;;;7.91;82.99
23616;BME280;11985;49.404;7.734;2023-02-16T21:56:38;98085.41;;;7.85;83.21
23616;BME280;11985;49.404;7.734;2023-02-16T22:01:43;98079.66;;;7.82;83.25
23616;BME280;11985;49.404;7.734;2023-02-16T22:06:47;98069.38;;;7.72;83.53
23616;BME280;11985;49.404;7.734;2023-02-16T22:11:49;98075.78;;;7.70;83.74
23616;BME280;11985;49.404;7.734;2023-02-16T22:16:51;98078.22;;;7.71;84.08
23616;BME280;11985;49.404;7.734;2023-02-16T22:21:54;98067.06;;;7.77;83.91
23616;BME280;11985;49.404;7.734;2023-02-16T22:26:56;98064.28;;;7.79;84.03
23616;BME280;11985;49.404;7.734;2023-02-16T22:31:57;98066.06;;;7.86;83.90
23616;BME280;11985;49.404;7.734;2023-02-16T22:37:00;98066.06;;;7.86;83.90
23616;BME280;11985;49.404;7.734;2023-02-16T22:42:02;98064.56;;;7.92;83.80
23616;BME280;11985;49.404;7.734;2023-02-16T22:47:04;98063.41;;;7.94;83.86
23616;BME280;11985;49.404;7.734;2023-02-16T22:52:07;98054.56;;;7.96;83.92
23616;BME280;11985;49.404;7.734;2023-02-16T22:57:10;98053.25;;;8.00;83.94
23616;BME280;11985;49.404;7.734;2023-02-16T23:02:11;98048.00;;;8.00;83.99
23616;BME280;11985;49.404;7.734;2023-02-16T23:07:14;98051.56;;;7.99;84.00
23616;BME280;11985;49.404;7.734;2023-02-16T23:12:16;98058.75;;;8.05;84.40
23616;BME280;11985;49.404;7.734;2023-02-16T23:17:17;98060.44;;;8.06;84.82
23616;BME280;11985;49.404;7.734;2023-02-16T23:22:20;98059.75;;;8.12;84.91
23616;BME280;11985;49.404;7.734;2023-02-16T23:27:22;98064.63;;;8.15;85.02
23616;BME280;11985;49.404;7.734;2023-02-16T23:32:23;98054.13;;;8.15;85.45
23616;BME280;11985;49.404;7.734;2023-02-16T23:37:29;98055.63;;;8.17;85.93
23616;BME280;11985;49.404;7.734;2023-02-16T23:42:30;98056.44;;;8.18;86.50
23616;BME280;11985;49.404;7.734;2023-02-16T23:47:32;98045.75;;;8.19;86.78
23616;BME280;11985;49.404;7.734;2023-02-16T23:52:35;98048.50;;;8.26;87.13
23616;BME280;11985;49.404;7.734;2023-02-16T23:57:38;98050.81;;;8.29;86.99
